sensor_id;sensor_type;location;lat;lon;timestamp;pressure;altitude;pressure_sealevel;temperature;humidity
61757;BME280;57225;61.460;24.060;2022-09-16T00:00:06;97348.00;;;9.81;100.00
61757;BME280;57225;61.460;24.060;2022-09-16T00:02:52;97342.44;;;9.81;100.00
61757;BME280;57225;61.460;24.060;2022-09-16T00:05:44;97341.97;;;9.83;100.00
61757;BME280;57225;61.460;24.060;2022-09-16T00:08:29;97344.28;;;9.84;100.00
61757;BME280;57225;61.460;24.060;2022-09-16T00:11:16;97335.78;;;9.88;100.00
61757;BME280;57225;61.460;24.060;2022-09-16T00:14:01;97351.38;;;9.94;100.00
61757;BME280;57225;61.460;24.060;2022-09-16T00:16:46;97354.59;;;9.93;100.00
61757;BME280;57225;61.460;24.060;2022-09-16T00:19:30;97352.00;;;9.89;100.00
61757;BME280;57225;61.460;24.060;2022-09-16T00:22:16;97350.16;;;9.86;100.00
61757;BME280;57225;61.460;24.060;2022-09-16T00:25:00;97347.53;;;9.83;100.00
61757;BME280;57225;61.460;24.060;2022-09-16T00:27:47;97347.53;;;9.83;100.00
61757;BME280;57225;61.460;24.060;2022-09-16T00:30:32;97358.03;;;9.88;100.00
61757;BME280;57225;61.460;24.060;2022-09-16T00:33:18;97347.66;;;9.88;100.00
61757;BME280;57225;61.460;24.060;2022-09-16T00:36:14;97343.97;;;9.91;100.00
61757;BME280;57225;61.460;24.060;2022-09-16T00:38:59;97339.66;;;9.81;100.00
61757;BME280;57225;61.460;24.060;2022-09-16T00:41:43;97342.28;;;9.85;100.00
61757;BME280;57225;61.460;24.060;2022-09-16T00:45:04;97341.19;;;9.91;100.00
61757;BME280;57225;61.460;24.060;2022-09-16T00:47:58;97334.41;;;9.92;100.00
61757;BME280;57225;61.460;24.060;2022-09-16T00:50:48;97333.44;;;9.95;100.00
61757;BME280;57225;61.460;24.060;2022-09-16T00:57:02;97329.75;;;9.98;100.00
61757;BME280;57225;61.460;24.060;2022-09-16T00:59:52;97321.69;;;10.00;100.00
61757;BME280;57225;61.460;24.060;2022-09-16T01:02:37;97318.63;;;9.98;100.00
61757;BME280;57225;61.460;24.060;2022-09-16T01:05:22;97311.97;;;9.96;100.00
61757;BME280;57225;61.460;24.060;2022-09-16T01:08:09;97318.75;;;9.95;100.00
61757;BME280;57225;61.460;24.060;2022-09-16T01:10:54;97309.34;;;9.92;100.00
61757;BME280;57225;61.460;24.060;2022-09-16T01:13:39;97312.47;;;9.85;100.00
61757;BME280;57225;61.460;24.060;2022-09-16T01:16:33;97298.69;;;9.82;100.00
61757;BME280;57225;61.460;24.060;2022-09-16T01:19:33;97306.41;;;9.87;100.00
61757;BME280;57225;61.460;24.060;2022-09-16T01:37:55;97305.03;;;9.82;100.00
61757;BME280;57225;61.460;24.060;2022-09-16T01:43:53;97299.94;;;9.90;100.00
61757;BME280;57225;61.460;24.060;2022-09-16T01:49:46;97309.69;;;9.85;100.00
61757;BME280;57225;61.460;24.060;2022-09-16T01:55:41;97302.88;;;9.86;100.00
61757;BME280;57225;61.460;24.060;2022-09-16T01:58:45;97308.44;;;9.86;100.00
61757;BME280;57225;61.460;24.060;2022-09-16T02:01:54;97311.50;;;9.88;100.00
61757;BME280;57225;61.460;24.060;2022-09-16T02:04:54;97296.97;;;9.93;100.00
61757;BME280;57225;61.460;24.060;2022-09-16T02:07:42;97305.63;;;9.95;100.00
61757;BME280;57225;61.460;24.060;2022-09-16T02:10:32;97288.63;;;9.93;100.00
61757;BME280;57225;61.460;24.060;2022-09-16T02:13:22;97298.84;;;9.96;100.00
61757;BME280;57225;61.460;24.060;2022-09-16T02:16:23;97303.44;;;9.99;100.00
61757;BME280;57225;61.460;24.060;2022-09-16T02:19:14;97307.31;;;10.02;100.00
61757;BME280;57225;61.460;24.060;2022-09-16T02:22:04;97300.19;;;10.01;100.00
61757;BME280;57225;61.460;24.060;2022-09-16T02:24:51;97300.66;;;9.99;100.00
61757;BME280;57225;61.460;24.060;2022-09-16T02:27:37;97283.06;;;9.93;100.00
61757;BME280;57225;61.460;24.060;2022-09-16T02:30:23;97285.22;;;9.98;100.00
61757;BME280;57225;61.460;24.060;2022-09-16T02:33:08;97297.88;;;9.99;100.00
61757;BME280;57225;61.460;24.060;2022-09-16T02:35:54;97297.88;;;9.99;100.00
61757;BME280;57225;61.460;24.060;2022-09-16T02:38:42;97284.16;;;9.96;100.00
61757;BME280;57225;61.460;24.060;2022-09-16T02:41:29;97289.06;;;10.01;100.00
61757;BME280;57225;61.460;24.060;2022-09-16T02:44:13;97291.38;;;10.02;100.00
61757;BME280;57225;61.460;24.060;2022-09-16T02:47:30;97287.66;;;10.05;100.00
61757;BME280;57225;61.460;24.060;2022-09-16T02:50:26;97287.97;;;10.07;100.00
61757;BME280;57225;61.460;24.060;2022-09-16T02:58:57;97297.41;;;10.01;100.00
61757;BME280;57225;61.460;24.060;2022-09-16T03:01:44;97299.28;;;10.04;100.00
61757;BME280;57225;61.460;24.060;2022-09-16T03:04:29;97306.06;;;10.03;100.00
61757;BME280;57225;61.460;24.060;2022-09-16T03:07:17;97296.66;;;10.00;100.00
61757;BME280;57225;61.460;24.060;2022-09-16T03:10:01;97293.88;;;10.00;100.00
61757;BME280;57225;61.460;24.060;2022-09-16T03:12:55;97287.38;;;10.03;100.00
61757;BME280;57225;61.460;24.060;2022-09-16T03:15:54;97298.97;;;10.02;100.00
61757;BME280;57225;61.460;24.060;2022-09-16T03:19:20;97288.28;;;10.00;100.00
61757;BME280;57225;61.460;24.060;2022-09-16T03:25:29;97285.22;;;9.98;100.00
61757;BME280;57225;61.460;24.060;2022-09-16T03:28:17;97285.06;;;9.93;100.00
61757;BME280;57225;61.460;24.060;2022-09-16T03:31:06;97281.53;;;9.92;100.00
61757;BME280;57225;61.460;24.060;2022-09-16T03:33:59;97284.66;;;9.85;100.00
61757;BME280;57225;61.460;24.060;2022-09-16T03:37:03;97274.63;;;9.79;100.00
61757;BME280;57225;61.460;24.060;2022-09-16T03:39:53;97286.94;;;9.87;100.00
61757;BME280;57225;61.460;24.060;2022-09-16T03:42:39;97284.66;;;9.85;100.00
61757;BME280;57225;61.460;24.060;2022-09-16T03:45:24;97278.94;;;9.80;100.00
61757;BME280;57225;61.460;24.060;2022-09-16T03:48:09;97276.91;;;9.80;100.00
61757;BME280;57225;61.460;24.060;2022-09-16T03:50:54;97289.31;;;9.79;100.00
61757;BME280;57225;61.460;24.060;2022-09-16T03:53:38;97287.75;;;9.78;100.00
61757;BME280;57225;61.460;24.060;2022-09-16T03:56:23;97282.19;;;9.78;100.00
61757;BME280;57225;61.460;24.060;2022-09-16T03:59:07;97285.25;;;9.80;100.00
61757;BME280;57225;61.460;24.060;2022-09-16T04:01:52;97280.63;;;9.77;100.00
61757;BME280;57225;61.460;24.060;2022-09-16T04:04:36;97285.44;;;9.77;100.00
61757;BME280;57225;61.460;24.060;2022-09-16T04:07:21;97281.41;;;9.78;100.00
61757;BME280;57225;61.460;24.060;2022-09-16T04:10:05;97276.63;;;9.69;100.00
61757;BME280;57225;61.460;24.060;2022-09-16T04:12:50;97287.75;;;9.69;100.00
61757;BME280;57225;61.460;24.060;2022-09-16T04:15:36;97282.38;;;9.65;100.00
61757;BME280;57225;61.460;24.060;2022-09-16T04:18:21;97277.09;;;9.67;100.00
61757;BME280;57225;61.460;24.060;2022-09-16T04:21:05;97282.22;;;9.60;100.00
61757;BME280;57225;61.460;24.060;2022-09-16T04:23:50;97281.75;;;9.61;100.00
61757;BME280;57225;61.460;24.060;2022-09-16T04:26:35;97278.22;;;9.61;100.00
61757;BME280;57225;61.460;24.060;2022-09-16T04:29:19;97265.81;;;9.62;100.00
61757;BME280;57225;61.460;24.060;2022-09-16T04:32:03;97272.66;;;9.61;100.00
61757;BME280;57225;61.460;24.060;2022-09-16T04:34:48;97268.59;;;9.62;100.00
61757;BME280;57225;61.460;24.060;2022-09-16T04:37:32;97265.53;;;9.60;100.00
61757;BME280;57225;61.460;24.060;2022-09-16T04:40:16;97268.94;;;9.64;100.00
61757;BME280;57225;61.460;24.060;2022-09-16T04:43:01;97262.75;;;9.60;100.00
61757;BME280;57225;61.460;24.060;2022-09-16T04:45:45;97270.94;;;9.63;100.00
61757;BME280;57225;61.460;24.060;2022-09-16T04:48:30;97265.81;;;9.62;100.00
61757;BME280;57225;61.460;24.060;2022-09-16T04:51:16;97264.78;;;9.59;100.00
61757;BME280;57225;61.460;24.060;2022-09-16T04:54:00;97264.00;;;9.59;100.00
61757;BME280;57225;61.460;24.060;2022-09-16T04:56:45;97269.56;;;9.59;100.00
61757;BME280;57225;61.460;24.060;2022-09-16T04:59:29;97256.88;;;9.58;100.00
61757;BME280;57225;61.460;24.060;2022-09-16T05:02:13;97264.00;;;9.59;100.00
61757;BME280;57225;61.460;24.060;2022-09-16T05:04:58;97262.13;;;9.56;100.00
61757;BME280;57225;61.460;24.060;2022-09-16T05:07:42;97261.22;;;9.59;100.00
61757;BME280;57225;61.460;24.060;2022-09-16T05:10:27;97253.47;;;9.63;100.00
61757;BME280;57225;61.460;24.060;2022-09-16T05:13:11;97254.56;;;9.65;100.00
61757;BME280;57225;61.460;24.060;2022-09-16T05:16:03;97252.84;;;9.77;100.00
61757;BME280;57225;61.460;24.060;2022-09-16T05:18:49;97257.44;;;9.80;100.00
61757;BME280;57225;61.460;24.060;2022-09-16T05:21:35;97259.00;;;9.81;100.00
61757;BME280;57225;61.460;24.060;2022-09-16T05:24:20;97258.06;;;9.84;100.00
61757;BME280;57225;61.460;24.060;2022-09-16T05:27:05;97243.84;;;9.82;100.00
61757;BME280;57225;61.460;24.060;2022-09-16T05:29:50;97251.84;;;9.98;100.00
61757;BME280;57225;61.460;24.060;2022-09-16T05:32:34;97247.78;;;10.08;100.00
61757;BME280;57225;61.460;24.060;2022-09-16T05:35:19;97243.13;;;10.15;100.00
61757;BME280;57225;61.460;24.060;2022-09-16T05:38:03;97250.38;;;10.21;100.00
61757;BME280;57225;61.460;24.060;2022-09-16T05:40:48;97249.59;;;10.30;100.00
61757;BME280;57225;61.460;24.060;2022-09-16T05:43:33;97250.75;;;10.38;100.00
61757;BME280;57225;61.460;24.060;2022-09-16T05:46:20;97251.19;;;10.45;100.00
61757;BME280;57225;61.460;24.060;2022-09-16T05:49:05;97257.06;;;10.47;100.00
61757;BME280;57225;61.460;24.060;2022-09-16T05:51:52;97246.81;;;10.54;100.00
61757;BME280;57225;61.460;24.060;2022-09-16T05:54:36;97244.13;;;10.68;100.00
61757;BME280;57225;61.460;24.060;2022-09-16T05:57:21;97251.94;;;10.79;100.00
61757;BME280;57225;61.460;24.060;2022-09-16T06:00:07;97251.38;;;10.89;100.00
61757;BME280;57225;61.460;24.060;2022-09-16T06:02:51;97253.16;;;11.02;100.00
61757;BME280;57225;61.460;24.060;2022-09-16T06:05:36;97256.03;;;11.07;100.00
61757;BME280;57225;61.460;24.060;2022-09-16T06:08:20;97249.94;;;11.18;100.00
61757;BME280;57225;61.460;24.060;2022-09-16T06:11:06;97255.78;;;11.20;98.66
61757;BME280;57225;61.460;24.060;2022-09-16T06:13:56;97257.47;;;11.41;99.37
61757;BME280;57225;61.460;24.060;2022-09-16T06:16:41;97252.50;;;11.60;97.35
61757;BME280;57225;61.460;24.060;2022-09-16T06:19:25;97249.25;;;11.76;97.73
61757;BME280;57225;61.460;24.060;2022-09-16T06:22:10;97261.38;;;11.88;95.74
61757;BME280;57225;61.460;24.060;2022-09-16T06:24:54;97256.84;;;12.05;94.38
61757;BME280;57225;61.460;24.060;2022-09-16T06:27:39;97253.75;;;12.18;93.92
61757;BME280;57225;61.460;24.060;2022-09-16T06:30:23;97255.53;;;12.35;93.80
61757;BME280;57225;61.460;24.060;2022-09-16T06:33:08;97261.88;;;12.51;90.50
61757;BME280;57225;61.460;24.060;2022-09-16T06:35:54;97255.88;;;12.58;91.88
61757;BME280;57225;61.460;24.060;2022-09-16T06:38:40;97262.03;;;12.62;91.82
61757;BME280;57225;61.460;24.060;2022-09-16T06:41:24;97257.69;;;12.61;91.01
61757;BME280;57225;61.460;24.060;2022-09-16T06:44:08;97266.63;;;12.65;89.56
61757;BME280;57225;61.460;24.060;2022-09-16T06:46:53;97260.34;;;12.49;88.44
61757;BME280;57225;61.460;24.060;2022-09-16T06:49:37;97258.91;;;12.39;90.93
61757;BME280;57225;61.460;24.060;2022-09-16T06:52:22;97268.94;;;12.31;91.09
61757;BME280;57225;61.460;24.060;2022-09-16T06:55:06;97264.44;;;12.19;91.10
61757;BME280;57225;61.460;24.060;2022-09-16T06:57:50;97263.38;;;12.02;91.63
61757;BME280;57225;61.460;24.060;2022-09-16T07:00:35;97268.47;;;11.89;95.14
61757;BME280;57225;61.460;24.060;2022-09-16T07:03:20;97259.84;;;11.87;96.69
61757;BME280;57225;61.460;24.060;2022-09-16T07:06:06;97262.91;;;11.89;97.35
61757;BME280;57225;61.460;24.060;2022-09-16T07:08:53;97259.66;;;11.76;98.54
61757;BME280;57225;61.460;24.060;2022-09-16T07:11:37;97254.44;;;11.68;97.46
61757;BME280;57225;61.460;24.060;2022-09-16T07:14:24;97260.47;;;11.67;98.44
61757;BME280;57225;61.460;24.060;2022-09-16T07:17:09;97263.84;;;11.71;99.79
61757;BME280;57225;61.460;24.060;2022-09-16T07:19:53;97265.59;;;11.68;98.75
61757;BME280;57225;61.460;24.060;2022-09-16T07:22:38;97260.56;;;11.58;100.00
61757;BME280;57225;61.460;24.060;2022-09-16T07:25:22;97258.63;;;11.64;100.00
61757;BME280;57225;61.460;24.060;2022-09-16T07:28:07;97260.66;;;11.63;100.00
61757;BME280;57225;61.460;24.060;2022-09-16T07:30:51;97260.19;;;11.65;100.00
61757;BME280;57225;61.460;24.060;2022-09-16T07:33:40;97264.72;;;11.62;100.00
61757;BME280;57225;61.460;24.060;2022-09-16T07:36:28;97262.47;;;11.52;99.91
61757;BME280;57225;61.460;24.060;2022-09-16T07:39:14;97266.91;;;11.44;100.00
61757;BME280;57225;61.460;24.060;2022-09-16T07:41:59;97268.94;;;11.43;100.00
61757;BME280;57225;61.460;24.060;2022-09-16T07:44:44;97268.81;;;11.52;100.00
61757;BME280;57225;61.460;24.060;2022-09-16T07:47:29;97265.09;;;11.55;100.00
61757;BME280;57225;61.460;24.060;2022-09-16T07:50:14;97268.66;;;11.56;97.27
61757;BME280;57225;61.460;24.060;2022-09-16T07:52:58;97255.56;;;11.62;98.19
61757;BME280;57225;61.460;24.060;2022-09-16T07:55:43;97263.84;;;11.56;100.00
61757;BME280;57225;61.460;24.060;2022-09-16T07:58:28;97266.44;;;11.60;99.21
61757;BME280;57225;61.460;24.060;2022-09-16T08:01:14;97269.69;;;11.58;100.00
61757;BME280;57225;61.460;24.060;2022-09-16T08:03:59;97281.16;;;11.60;99.31
61757;BME280;57225;61.460;24.060;2022-09-16T08:06:44;97271.94;;;11.69;99.37
61757;BME280;57225;61.460;24.060;2022-09-16T08:09:29;97273.88;;;11.78;99.98
61757;BME280;57225;61.460;24.060;2022-09-16T08:12:13;97280.06;;;11.82;100.00
61757;BME280;57225;61.460;24.060;2022-09-16T08:14:59;97280.19;;;11.63;100.00
61757;BME280;57225;61.460;24.060;2022-09-16T08:17:43;97278.06;;;11.58;100.00
61757;BME280;57225;61.460;24.060;2022-09-16T08:20:28;97277.50;;;11.54;100.00
61757;BME280;57225;61.460;24.060;2022-09-16T08:23:12;97266.81;;;11.53;100.00
61757;BME280;57225;61.460;24.060;2022-09-16T08:25:58;97272.59;;;11.64;100.00
61757;BME280;57225;61.460;24.060;2022-09-16T08:28:44;97282.44;;;11.74;100.00
61757;BME280;57225;61.460;24.060;2022-09-16T08:31:28;97288.84;;;11.65;100.00
61757;BME280;57225;61.460;24.060;2022-09-16T08:34:16;97285.38;;;11.56;99.81
61757;BME280;57225;61.460;24.060;2022-09-16T08:37:01;97286.53;;;11.49;100.00
61757;BME280;57225;61.460;24.060;2022-09-16T08:39:48;97287.97;;;11.59;100.00
61757;BME280;57225;61.460;24.060;2022-09-16T08:46:08;97288.03;;;11.74;98.60
61757;BME280;57225;61.460;24.060;2022-09-16T08:49:12;97289.25;;;11.73;100.00
61757;BME280;57225;61.460;24.060;2022-09-16T08:52:08;97288.44;;;11.58;98.60
61757;BME280;57225;61.460;24.060;2022-09-16T08:54:57;97294.44;;;11.65;98.01
61757;BME280;57225;61.460;24.060;2022-09-16T08:57:51;97287.03;;;11.62;98.92
61757;BME280;57225;61.460;24.060;2022-09-16T09:00:38;97281.72;;;11.64;97.85
61757;BME280;57225;61.460;24.060;2022-09-16T09:03:42;97285.59;;;11.67;98.86
61757;BME280;57225;61.460;24.060;2022-09-16T09:06:38;97288.31;;;11.76;99.56
61757;BME280;57225;61.460;24.060;2022-09-16T09:09:48;97291.50;;;11.84;96.20
61757;BME280;57225;61.460;24.060;2022-09-16T09:15:40;97282.56;;;11.80;97.47
61757;BME280;57225;61.460;24.060;2022-09-16T09:34:24;97293.13;;;12.05;93.74
61757;BME280;57225;61.460;24.060;2022-09-16T09:41:10;97288.50;;;12.31;92.20
61757;BME280;57225;61.460;24.060;2022-09-16T09:50:52;97297.03;;;13.12;89.15
61757;BME280;57225;61.460;24.060;2022-09-16T09:53:44;97294.25;;;13.33;88.04
61757;BME280;57225;61.460;24.060;2022-09-16T09:56:34;97297.53;;;13.31;83.24
61757;BME280;57225;61.460;24.060;2022-09-16T09:59:34;97290.47;;;13.15;85.70
61757;BME280;57225;61.460;24.060;2022-09-16T10:02:21;97296.16;;;13.47;84.71
61757;BME280;57225;61.460;24.060;2022-09-16T10:05:18;97294.13;;;13.67;83.09
61757;BME280;57225;61.460;24.060;2022-09-16T10:08:12;97301.44;;;13.39;82.57
61757;BME280;57225;61.460;24.060;2022-09-16T10:11:00;97296.34;;;13.38;82.52
61757;BME280;57225;61.460;24.060;2022-09-16T10:13:51;97300.78;;;13.50;83.65
61757;BME280;57225;61.460;24.060;2022-09-16T10:16:36;97300.66;;;13.59;79.58
61757;BME280;57225;61.460;24.060;2022-09-16T10:19:23;97297.28;;;13.55;77.20
61757;BME280;57225;61.460;24.060;2022-09-16T10:22:10;97300.66;;;13.85;77.94
61757;BME280;57225;61.460;24.060;2022-09-16T10:25:05;97301.47;;;14.17;74.37
61757;BME280;57225;61.460;24.060;2022-09-16T10:27:56;97297.69;;;14.20;74.70
61757;BME280;57225;61.460;24.060;2022-09-16T10:30:46;97300.94;;;13.87;77.54
61757;BME280;57225;61.460;24.060;2022-09-16T10:33:39;97301.78;;;13.73;78.20
61757;BME280;57225;61.460;24.060;2022-09-16T10:36:31;97303.88;;;13.52;80.31
61757;BME280;57225;61.460;24.060;2022-09-16T10:39:22;97306.03;;;13.42;80.58
61757;BME280;57225;61.460;24.060;2022-09-16T10:42:25;97313.13;;;13.38;83.19
61757;BME280;57225;61.460;24.060;2022-09-16T10:45:16;97312.56;;;13.34;82.86
61757;BME280;57225;61.460;24.060;2022-09-16T10:48:12;97313.53;;;13.31;77.83
61757;BME280;57225;61.460;24.060;2022-09-16T10:50:59;97312.56;;;13.13;80.12
61757;BME280;57225;61.460;24.060;2022-09-16T10:53:49;97319.94;;;12.96;82.13
61757;BME280;57225;61.460;24.060;2022-09-16T10:56:46;97310.97;;;12.92;82.53
61757;BME280;57225;61.460;24.060;2022-09-16T10:59:31;97315.53;;;12.89;84.49
61757;BME280;57225;61.460;24.060;2022-09-16T11:02:28;97302.81;;;12.88;85.17
61757;BME280;57225;61.460;24.060;2022-09-16T11:05:50;97316.69;;;12.83;85.76
61757;BME280;57225;61.460;24.060;2022-09-16T11:24:53;97322.56;;;12.35;82.79
61757;BME280;57225;61.460;24.060;2022-09-16T11:33:55;97320.63;;;12.41;87.82
61757;BME280;57225;61.460;24.060;2022-09-16T11:37:05;97307.34;;;12.51;89.69
61757;BME280;57225;61.460;24.060;2022-09-16T11:43:22;97314.25;;;12.56;88.13
61757;BME280;57225;61.460;24.060;2022-09-16T11:55:37;97316.69;;;12.83;84.66
61757;BME280;57225;61.460;24.060;2022-09-16T12:01:30;97314.47;;;12.87;84.86
61757;BME280;57225;61.460;24.060;2022-09-16T12:04:28;97312.38;;;12.82;87.03
61757;BME280;57225;61.460;24.060;2022-09-16T12:07:29;97311.25;;;12.94;87.62
61757;BME280;57225;61.460;24.060;2022-09-16T12:10:39;97298.66;;;12.84;86.05
61757;BME280;57225;61.460;24.060;2022-09-16T12:13:35;97309.09;;;13.04;86.97
61757;BME280;57225;61.460;24.060;2022-09-16T12:16:50;97323.44;;;13.11;88.39
61757;BME280;57225;61.460;24.060;2022-09-16T12:19:54;97315.38;;;13.13;86.27
61757;BME280;57225;61.460;24.060;2022-09-16T12:22:49;97321.22;;;13.15;85.12
61757;BME280;57225;61.460;24.060;2022-09-16T12:25:42;97310.03;;;13.15;85.46
61757;BME280;57225;61.460;24.060;2022-09-16T12:28:35;97327.94;;;13.23;86.07
61757;BME280;57225;61.460;24.060;2022-09-16T12:34:47;97325.00;;;13.33;85.26
61757;BME280;57225;61.460;24.060;2022-09-16T12:37:53;97325.16;;;13.44;85.34
61757;BME280;57225;61.460;24.060;2022-09-16T13:02:20;97308.31;;;14.73;77.75
61757;BME280;57225;61.460;24.060;2022-09-16T13:05:36;97305.72;;;14.69;77.38
61757;BME280;57225;61.460;24.060;2022-09-16T13:08:30;97304.91;;;14.63;78.83
61757;BME280;57225;61.460;24.060;2022-09-16T13:11:27;97301.56;;;14.54;77.65
61757;BME280;57225;61.460;24.060;2022-09-16T13:14:20;97305.94;;;14.60;78.00
61757;BME280;57225;61.460;24.060;2022-09-16T13:17:09;97306.47;;;14.64;80.14
61757;BME280;57225;61.460;24.060;2022-09-16T13:20:11;97309.91;;;14.48;80.55
61757;BME280;57225;61.460;24.060;2022-09-16T13:23:15;97307.28;;;14.39;77.27
61757;BME280;57225;61.460;24.060;2022-09-16T13:26:04;97307.22;;;14.33;80.15
61757;BME280;57225;61.460;24.060;2022-09-16T13:28:50;97311.16;;;14.16;82.38
61757;BME280;57225;61.460;24.060;2022-09-16T13:31:46;97311.59;;;14.08;81.47
61757;BME280;57225;61.460;24.060;2022-09-16T13:34:31;97313.72;;;13.93;80.97
61757;BME280;57225;61.460;24.060;2022-09-16T13:37:22;97311.34;;;13.86;82.14
61757;BME280;57225;61.460;24.060;2022-09-16T13:40:25;97310.00;;;13.76;81.68
61757;BME280;57225;61.460;24.060;2022-09-16T13:49:34;97317.47;;;13.39;83.95
61757;BME280;57225;61.460;24.060;2022-09-16T13:52:08;97318.16;;;13.34;85.98
61757;BME280;57225;61.460;24.060;2022-09-16T13:54:57;97316.75;;;13.23;87.88
61757;BME280;57225;61.460;24.060;2022-09-16T13:58:03;97324.41;;;12.88;92.76
61757;BME280;57225;61.460;24.060;2022-09-16T14:04:03;97331.78;;;12.71;93.19
61757;BME280;57225;61.460;24.060;2022-09-16T14:09:59;97334.84;;;12.73;95.87
61757;BME280;57225;61.460;24.060;2022-09-16T14:13:12;97333.28;;;12.72;96.13
61757;BME280;57225;61.460;24.060;2022-09-16T14:15:57;97334.44;;;12.80;95.31
61757;BME280;57225;61.460;24.060;2022-09-16T14:18:54;97332.78;;;12.88;95.55
61757;BME280;57225;61.460;24.060;2022-09-16T14:21:39;97335.97;;;12.81;93.97
61757;BME280;57225;61.460;24.060;2022-09-16T14:24:23;97334.25;;;12.83;95.35
61757;BME280;57225;61.460;24.060;2022-09-16T14:27:31;97334.88;;;12.93;93.46
61757;BME280;57225;61.460;24.060;2022-09-16T14:30:19;97336.41;;;12.94;92.34
61757;BME280;57225;61.460;24.060;2022-09-16T14:33:05;97333.63;;;12.94;89.62
61757;BME280;57225;61.460;24.060;2022-09-16T14:35:51;97338.06;;;12.86;88.74
61757;BME280;57225;61.460;24.060;2022-09-16T14:38:41;97337.47;;;12.62;91.18
61757;BME280;57225;61.460;24.060;2022-09-16T14:41:35;97332.97;;;12.49;92.17
61757;BME280;57225;61.460;24.060;2022-09-16T14:44:25;97332.97;;;12.49;94.89
61757;BME280;57225;61.460;24.060;2022-09-16T14:47:32;97338.94;;;12.28;93.12
61757;BME280;57225;61.460;24.060;2022-09-16T14:50:26;97338.75;;;12.17;94.92
61757;BME280;57225;61.460;24.060;2022-09-16T14:56:18;97339.81;;;12.19;94.63
61757;BME280;57225;61.460;24.060;2022-09-16T14:59:02;97338.94;;;12.28;94.06
61757;BME280;57225;61.460;24.060;2022-09-16T15:01:47;97341.81;;;12.33;94.75
61757;BME280;57225;61.460;24.060;2022-09-16T15:04:35;97327.97;;;12.24;96.01
61757;BME280;57225;61.460;24.060;2022-09-16T15:07:41;97345.59;;;12.30;96.89
61757;BME280;57225;61.460;24.060;2022-09-16T15:10:28;97340.09;;;12.21;98.09
61757;BME280;57225;61.460;24.060;2022-09-16T15:13:14;97340.31;;;12.18;98.54
61757;BME280;57225;61.460;24.060;2022-09-16T15:16:09;97336.25;;;12.04;99.71
61757;BME280;57225;61.460;24.060;2022-09-16T15:18:59;97342.13;;;12.06;100.00
61757;BME280;57225;61.460;24.060;2022-09-16T15:21:44;97344.63;;;12.04;100.00
61757;BME280;57225;61.460;24.060;2022-09-16T15:24:32;97339.41;;;11.97;100.00
61757;BME280;57225;61.460;24.060;2022-09-16T15:27:27;97343.84;;;11.89;100.00
61757;BME280;57225;61.460;24.060;2022-09-16T15:30:24;97344.81;;;11.86;100.00
61757;BME280;57225;61.460;24.060;2022-09-16T15:33:35;97347.97;;;11.79;100.00
61757;BME280;57225;61.460;24.060;2022-09-16T15:36:42;97334.84;;;11.70;100.00
61757;BME280;57225;61.460;24.060;2022-09-16T15:39:36;97348.63;;;11.74;100.00
61757;BME280;57225;61.460;24.060;2022-09-16T15:42:22;97345.53;;;11.72;100.00
61757;BME280;57225;61.460;24.060;2022-09-16T15:45:17;97343.41;;;11.66;100.00
61757;BME280;57225;61.460;24.060;2022-09-16T15:48:19;97348.41;;;11.62;100.00
61757;BME280;57225;61.460;24.060;2022-09-16T15:51:08;97343.59;;;11.63;100.00
61757;BME280;57225;61.460;24.060;2022-09-16T15:53:58;97345.00;;;11.58;100.00
61757;BME280;57225;61.460;24.060;2022-09-16T15:57:05;97345.00;;;11.58;100.00
61757;BME280;57225;61.460;24.060;2022-09-16T16:02:57;97350.31;;;11.56;100.00
61757;BME280;57225;61.460;24.060;2022-09-16T16:05:49;97354.41;;;11.46;100.00
61757;BME280;57225;61.460;24.060;2022-09-16T16:11:24;97352.09;;;11.45;100.00
61757;BME280;57225;61.460;24.060;2022-09-16T16:14:09;97353.63;;;11.46;100.00
61757;BME280;57225;61.460;24.060;2022-09-16T16:16:53;97355.94;;;11.47;100.00
61757;BME280;57225;61.460;24.060;2022-09-16T16:19:39;97354.88;;;11.45;100.00
61757;BME280;57225;61.460;24.060;2022-09-16T16:22:24;97349.50;;;11.41;100.00
61757;BME280;57225;61.460;24.060;2022-09-16T16:25:10;97350.56;;;11.44;100.00
61757;BME280;57225;61.460;24.060;2022-09-16T16:27:54;97356.31;;;11.40;100.00
61757;BME280;57225;61.460;24.060;2022-09-16T16:30:39;97357.28;;;11.37;100.00
61757;BME280;57225;61.460;24.060;2022-09-16T16:33:24;97352.94;;;11.36;100.00
61757;BME280;57225;61.460;24.060;2022-09-16T16:36:08;97358.69;;;11.33;100.00
61757;BME280;57225;61.460;24.060;2022-09-16T16:38:52;97361.56;;;11.23;100.00
61757;BME280;57225;61.460;24.060;2022-09-16T16:41:37;97359.88;;;11.17;100.00
61757;BME280;57225;61.460;24.060;2022-09-16T16:44:22;97358.38;;;11.07;100.00
61757;BME280;57225;61.460;24.060;2022-09-16T16:47:08;97357.81;;;11.03;100.00
61757;BME280;57225;61.460;24.060;2022-09-16T16:49:53;97356.38;;;11.07;100.00
61757;BME280;57225;61.460;24.060;2022-09-16T16:52:37;97355.97;;;11.00;100.00
61757;BME280;57225;61.460;24.060;2022-09-16T16:55:22;97362.16;;;10.95;100.00
61757;BME280;57225;61.460;24.060;2022-09-16T16:58:06;97360.03;;;10.89;100.00
61757;BME280;57225;61.460;24.060;2022-09-16T17:00:50;97355.25;;;10.90;100.00
61757;BME280;57225;61.460;24.060;2022-09-16T17:03:36;97353.22;;;10.91;100.00
61757;BME280;57225;61.460;24.060;2022-09-16T17:06:21;97356.00;;;10.91;100.00
61757;BME280;57225;61.460;24.060;2022-09-16T17:09:07;97355.47;;;10.77;100.00
61757;BME280;57225;61.460;24.060;2022-09-16T17:11:54;97357.34;;;10.71;100.00
61757;BME280;57225;61.460;24.060;2022-09-16T17:14:39;97355.22;;;10.66;100.00
61757;BME280;57225;61.460;24.060;2022-09-16T17:17:24;97359.69;;;10.64;100.00